Millville, Massachusetts
Current Conditions -  °F | °C
As of 5:35 AM on Friday 28 Nov 2014 (Local Time) from KSFZ Reporting Station
Overcast Overcast  
Wind Chill: 20°   Ceiling: 2500
Heat Index: 28°   Visibility: 8mi
Dew Point: 21°   Wind: 9mph
Humidity: 74%   Direction: 330°NNW
Pressure: 29.97"   Gusts: NA
Location:  42.03°N, 71.58°W
Report Text: KSFZ 281035Z 33008KT 8SM OVC025 M02/M06 A2997 RMK AO1
Loading
Personal Weather Stations






























Interactive Weather Map New forecast layout! Learn more

10-Day Weather Forecast

Advertisements
Track Severe Weather on mobile